Time;durP1;ratioP1;P1;durP2;ratioP2;P2;SDS_P1;SDS_P2;PMS_P1;PMS_P2;Temp;Humidity;BMP_temperature;BMP_pressure;BME280_temperature;BME280_humidity;BME280_pressure;Samples;Min_cycle;Max_cycle;Signal;HPM_P1;HPM_P2
2022/04/13 00:01:54;;;;;;;4.40;4.10;;;18.30;63.20;;;;;;5050984;28;20472;-64
2022/04/13 00:04:20;;;;;;;4.87;4.57;;;18.40;63.10;;;;;;5052397;28;20202;-64
2022/04/13 00:06:46;;;;;;;4.80;4.40;;;18.40;63.10;;;;;;5051320;28;20622;-65
2022/04/13 00:09:11;;;;;;;5.50;4.30;;;18.40;63.90;;;;;;5052142;28;20170;-64
2022/04/13 00:11:37;;;;;;;4.40;4.10;;;18.40;63.40;;;;;;5052335;28;20177;-64
2022/04/13 00:14:03;;;;;;;4.53;4.13;;;18.50;64.00;;;;;;5051256;28;20725;-64
2022/04/13 00:16:29;;;;;;;3.93;3.73;;;18.50;63.90;;;;;;5046062;28;20418;-64
2022/04/13 00:18:55;;;;;;;5.33;4.10;;;18.40;63.00;;;;;;5031306;28;20456;-64
2022/04/13 00:21:21;;;;;;;4.50;4.20;;;18.40;64.20;;;;;;5014829;28;20465;-64
2022/04/13 00:23:47;;;;;;;4.17;3.97;;;18.40;65.00;;;;;;5031505;28;20425;-64
2022/04/13 00:26:13;;;;;;;5.17;4.90;;;18.40;66.20;;;;;;5032644;28;20831;-64
2022/04/13 00:28:39;;;;;;;3.87;3.60;;;18.40;67.00;;;;;;5032176;28;20185;-64
2022/04/13 00:31:05;;;;;;;4.57;4.17;;;18.40;67.80;;;;;;5031050;28;21002;-64
2022/04/13 00:33:32;;;;;;;4.37;4.07;;;18.30;69.40;;;;;;5032054;28;20291;-64
2022/04/13 00:35:58;;;;;;;4.80;4.47;;;18.20;69.20;;;;;;5013928;28;20182;-64
2022/04/13 00:38:24;;;;;;;4.57;4.30;;;18.20;69.00;;;;;;5014480;28;20491;-64
2022/04/13 00:40:50;;;;;;;5.07;4.70;;;18.10;69.40;;;;;;5031186;28;20449;-67
2022/04/13 00:43:16;;;;;;;5.10;4.80;;;18.00;69.60;;;;;;5051876;28;20232;-64
2022/04/13 00:45:46;;;;;;;4.77;4.50;;;18.00;71.00;;;;;;5051664;28;20922;-64
2022/04/13 00:48:36;;;;;;;5.10;4.80;;;17.90;71.20;;;;;;5051455;28;20408;-64
2022/04/13 00:51:02;;;;;;;5.20;4.90;;;17.90;70.90;;;;;;5033170;28;20429;-64
2022/04/13 00:53:30;;;;;;;4.40;4.20;;;17.90;70.30;;;;;;5051609;28;20818;-64
2022/04/13 00:55:58;;;;;;;5.77;4.97;;;17.90;69.20;;;;;;5047988;28;20803;-64
2022/04/13 00:58:27;;;;;;;5.10;4.70;;;17.90;69.00;;;;;;5031925;28;20416;-64
2022/04/13 01:00:54;;;;;;;4.77;4.47;;;17.90;71.10;;;;;;5013428;28;20476;-64
2022/04/13 01:03:25;;;;;;;5.00;4.70;;;17.80;72.00;;;;;;5037251;28;20436;-64
2022/04/13 01:05:52;;;;;;;4.90;4.60;;;17.80;72.90;;;;;;5050786;28;20794;-64
2022/04/13 01:08:19;;;;;;;5.00;4.70;;;17.70;73.40;;;;;;5036769;28;20431;-64
2022/04/13 01:11:22;;;;;;;4.50;4.30;;;17.70;74.40;;;;;;5031723;28;20413;-70
2022/04/13 01:13:48;;;;;;;4.20;3.90;;;17.60;74.60;;;;;;5013581;28;20765;-70
2022/04/13 01:16:16;;;;;;;4.40;4.00;;;17.50;75.60;;;;;;5031982;28;20408;-64
2022/04/13 01:18:42;;;;;;;4.90;4.50;;;17.40;76.10;;;;;;5031203;28;20214;-64
2022/04/13 01:21:12;;;;;;;4.77;4.37;;;17.30;76.00;;;;;;5013278;28;20503;-64
2022/04/13 01:23:39;;;;;;;4.30;4.00;;;17.30;76.60;;;;;;5031529;28;20161;-64
2022/04/13 01:26:10;;;;;;;5.23;4.93;;;17.20;76.50;;;;;;5031091;28;20413;-63
2022/04/13 01:28:36;;;;;;;5.10;4.70;;;17.20;77.30;;;;;;5031963;28;20409;-64
2022/04/13 01:31:02;;;;;;;4.70;4.30;;;17.20;76.60;;;;;;5033063;28;20429;-64
2022/04/13 01:33:28;;;;;;;5.00;4.50;;;17.10;76.30;;;;;;5051258;28;20451;-64
2022/04/13 01:35:56;;;;;;;4.40;4.10;;;17.10;75.40;;;;;;5034815;28;20174;-64
2022/04/13 01:38:22;;;;;;;4.47;4.17;;;17.10;75.70;;;;;;5031854;28;20413;-64
2022/04/13 01:40:49;;;;;;;4.97;4.57;;;17.10;77.00;;;;;;5013392;28;20991;-69
2022/04/13 01:43:15;;;;;;;4.67;4.33;;;17.10;78.00;;;;;;5031110;28;20177;-64
2022/04/13 01:45:41;;;;;;;4.40;4.03;;;17.10;78.00;;;;;;5034866;28;20894;-64
2022/04/13 01:48:09;;;;;;;4.47;4.27;;;17.00;77.50;;;;;;5034482;28;20455;-64
2022/04/13 01:50:35;;;;;;;4.67;4.37;;;17.00;77.60;;;;;;5034586;28;20178;-63
2022/04/13 01:53:01;;;;;;;4.37;3.97;;;17.00;77.50;;;;;;5034142;28;20418;-64
2022/04/13 01:55:26;;;;;;;5.03;4.63;;;16.90;77.30;;;;;;5000795;28;20205;-64
2022/04/13 01:57:52;;;;;;;4.90;4.50;;;16.90;77.60;;;;;;5034365;28;20171;-65
2022/04/13 02:00:18;;;;;;;4.97;4.57;;;16.90;78.70;;;;;;5034895;28;20214;-64
2022/04/13 02:02:43;;;;;;;4.63;4.30;;;16.80;78.90;;;;;;5044484;28;20174;-64
2022/04/13 02:05:09;;;;;;;6.60;4.80;;;16.80;79.00;;;;;;5054122;28;20386;-64
2022/04/13 02:07:36;;;;;;;4.43;4.13;;;16.80;79.50;;;;;;5054601;28;20177;-64
2022/04/13 02:10:02;;;;;;;4.93;4.53;;;16.70;80.50;;;;;;5053528;28;20420;-64
2022/04/13 02:12:28;;;;;;;4.53;4.33;;;16.70;81.00;;;;;;5054408;28;20412;-64
2022/04/13 02:14:54;;;;;;;4.77;4.47;;;16.60;81.40;;;;;;5053642;28;20396;-64
2022/04/13 02:17:21;;;;;;;4.60;4.40;;;16.60;82.20;;;;;;5023288;28;20189;-64
2022/04/13 02:19:46;;;;;;;5.10;4.70;;;16.60;82.00;;;;;;5034202;28;20469;-64
2022/04/13 02:22:12;;;;;;;5.27;4.50;;;16.50;81.10;;;;;;5033559;28;20439;-64
2022/04/13 02:24:39;;;;;;;5.10;4.57;;;16.50;80.60;;;;;;5016678;28;20692;-64
2022/04/13 02:27:09;;;;;;;5.07;4.67;;;16.50;81.50;;;;;;5033259;28;20619;-66
2022/04/13 02:29:36;;;;;;;5.13;4.73;;;16.50;82.40;;;;;;5039654;28;20417;-66
2022/04/13 02:32:06;;;;;;;4.43;4.13;;;16.50;83.70;;;;;;5053527;28;20408;-65
2022/04/13 02:34:32;;;;;;;4.10;3.90;;;16.50;84.60;;;;;;5053818;28;20396;-65
2022/04/13 02:36:58;;;;;;;4.77;4.43;;;16.40;84.50;;;;;;5035362;28;20424;-65
2022/04/13 02:39:24;;;;;;;5.20;4.83;;;16.40;85.30;;;;;;5054196;28;20441;-65
2022/04/13 02:41:49;;;;;;;5.17;4.63;;;16.30;86.00;;;;;;5053992;28;20463;-65
2022/04/13 02:44:15;;;;;;;5.37;4.97;;;16.30;85.00;;;;;;5053010;28;20224;-65
2022/04/13 02:46:43;;;;;;;5.03;4.73;;;16.30;85.80;;;;;;5039589;28;20228;-65
2022/04/13 02:49:09;;;;;;;5.77;5.37;;;16.20;85.30;;;;;;5032904;28;20178;-65
2022/04/13 02:51:34;;;;;;;7.03;5.40;;;16.20;85.00;;;;;;5028631;28;20958;-65
2022/04/13 02:54:00;;;;;;;5.60;5.10;;;16.20;84.90;;;;;;5035301;28;20181;-65
2022/04/13 02:56:26;;;;;;;5.83;5.40;;;16.10;84.70;;;;;;5041822;28;20634;-65
2022/04/13 02:58:52;;;;;;;6.30;5.70;;;16.10;85.10;;;;;;5033516;28;20183;-75
2022/04/13 03:01:17;;;;;;;5.67;5.27;;;16.10;85.10;;;;;;5025676;28;20213;-66
2022/04/13 03:03:43;;;;;;;5.87;5.47;;;16.00;85.90;;;;;;5053512;28;20181;-67
2022/04/13 03:06:09;;;;;;;6.60;5.10;;;16.00;86.10;;;;;;5047585;28;20204;-67
2022/04/13 03:08:34;;;;;;;5.30;4.80;;;16.00;86.60;;;;;;5047079;28;20198;-67
2022/04/13 03:11:01;;;;;;;4.93;4.63;;;15.90;86.20;;;;;;5025303;28;20634;-66
2022/04/13 03:13:26;;;;;;;6.10;5.70;;;15.90;86.20;;;;;;5033082;28;20651;-67
2022/04/13 03:15:52;;;;;;;6.00;5.50;;;15.90;85.90;;;;;;5025083;28;20416;-78
2022/04/13 03:18:18;;;;;;;6.40;5.90;;;15.90;86.30;;;;;;5047649;28;20183;-67
2022/04/13 03:20:43;;;;;;;6.00;5.50;;;15.90;86.50;;;;;;5052831;28;20229;-66
2022/04/13 03:23:09;;;;;;;5.53;5.13;;;15.80;86.80;;;;;;5052114;28;20181;-66
2022/04/13 03:25:35;;;;;;;5.63;5.33;;;15.80;86.50;;;;;;5052483;28;20197;-66
2022/04/13 03:28:00;;;;;;;5.00;4.67;;;15.70;86.30;;;;;;5052264;28;20180;-67
2022/04/13 03:30:26;;;;;;;5.33;4.80;;;15.80;86.80;;;;;;5035261;28;20177;-66
2022/04/13 03:32:52;;;;;;;4.80;4.50;;;15.70;86.50;;;;;;5052948;28;20719;-66
2022/04/13 03:35:18;;;;;;;5.97;4.67;;;15.70;87.30;;;;;;5052175;28;20528;-67
2022/04/13 03:37:44;;;;;;;5.00;4.70;;;15.70;87.70;;;;;;5052551;28;20183;-65
2022/04/13 03:40:11;;;;;;;5.57;5.23;;;15.70;88.80;;;;;;5051947;28;20663;-65
2022/04/13 03:42:39;;;;;;;5.27;4.87;;;15.60;88.70;;;;;;5053085;28;20220;-65
2022/04/13 03:45:06;;;;;;;5.03;4.83;;;15.60;88.90;;;;;;5051950;28;20434;-65
2022/04/13 03:47:31;;;;;;;5.17;4.87;;;15.50;89.40;;;;;;5052387;28;20423;-65
2022/04/13 03:49:58;;;;;;;7.23;6.67;;;15.40;89.40;;;;;;5052132;28;20446;-72
2022/04/13 03:52:24;;;;;;;5.37;4.97;;;15.40;90.00;;;;;;5045286;28;20529;-65
2022/04/13 03:54:49;;;;;;;7.00;6.50;;;15.40;90.20;;;;;;5032693;28;20423;-65
2022/04/13 03:57:15;;;;;;;4.93;4.53;;;15.30;90.40;;;;;;5044347;28;20434;-65
2022/04/13 03:59:41;;;;;;;7.13;6.63;;;15.40;90.80;;;;;;5052247;28;20253;-65
2022/04/13 04:02:06;;;;;;;6.97;6.47;;;15.30;90.70;;;;;;5049897;28;20192;-66
2022/04/13 04:04:32;;;;;;;5.50;5.07;;;15.30;91.10;;;;;;5044542;28;20177;-65
2022/04/13 04:06:58;;;;;;;5.37;4.97;;;15.20;91.20;;;;;;5014157;28;20179;-65
2022/04/13 04:09:24;;;;;;;5.67;5.17;;;15.20;91.40;;;;;;5032549;28;20204;-65
2022/04/13 04:11:50;;;;;;;7.97;7.07;;;15.20;91.20;;;;;;5032824;28;20218;-65
2022/04/13 04:14:15;;;;;;;6.03;5.63;;;15.20;91.20;;;;;;5013717;28;20539;-65
2022/04/13 04:16:41;;;;;;;9.73;9.13;;;15.20;91.50;;;;;;5032929;28;20654;-65
2022/04/13 04:19:08;;;;;;;7.60;6.90;;;15.20;91.50;;;;;;5039174;28;20221;-65
2022/04/13 04:21:34;;;;;;;9.20;8.50;;;15.10;91.30;;;;;;5034229;28;20978;-65
2022/04/13 04:24:00;;;;;;;7.53;6.63;;;15.10;91.50;;;;;;5041497;28;20431;-73
2022/04/13 04:26:26;;;;;;;6.97;6.07;;;15.10;91.60;;;;;;5032655;28;20430;-65
2022/04/13 04:28:52;;;;;;;7.97;7.27;;;15.00;91.60;;;;;;5014270;28;20474;-65
2022/04/13 04:31:49;;;;;;;6.70;6.03;;;15.00;91.80;;;;;;5031631;28;20421;-65
2022/04/13 04:34:04;;;;;;;5.63;5.23;;;15.00;92.10;;;;;;5031291;28;20468;-65
2022/04/13 04:36:30;;;;;;;6.03;5.57;;;15.00;92.60;;;;;;5031852;28;20415;-65
2022/04/13 04:38:56;;;;;;;5.27;4.97;;;14.90;92.60;;;;;;5013998;28;20964;-65
2022/04/13 04:41:21;;;;;;;5.90;5.30;;;14.90;92.60;;;;;;5025679;28;20218;-66
2022/04/13 04:43:47;;;;;;;7.10;6.40;;;14.80;92.60;;;;;;5032314;28;20257;-65
2022/04/13 04:46:13;;;;;;;8.07;7.53;;;14.80;92.80;;;;;;5038883;28;20171;-65
2022/04/13 04:48:42;;;;;;;6.13;5.70;;;14.80;92.90;;;;;;5051869;28;20506;-65
2022/04/13 04:51:08;;;;;;;6.50;6.10;;;14.80;93.10;;;;;;5052182;28;20646;-65
2022/04/13 04:53:34;;;;;;;6.30;5.80;;;14.80;93.20;;;;;;5051706;28;20412;-65
2022/04/13 04:56:00;;;;;;;5.60;5.10;;;14.70;93.00;;;;;;5051261;28;20424;-72
2022/04/13 04:58:27;;;;;;;5.60;5.20;;;14.70;93.10;;;;;;5043121;28;20414;-65
2022/04/13 05:00:53;;;;;;;7.10;6.60;;;14.70;93.60;;;;;;5035814;28;20549;-68
2022/04/13 05:03:19;;;;;;;5.60;5.17;;;14.70;93.70;;;;;;5035276;28;20428;-67
2022/04/13 05:05:45;;;;;;;5.40;4.97;;;14.70;93.80;;;;;;5043759;28;20432;-67
2022/04/13 05:08:10;;;;;;;5.77;5.23;;;14.70;94.00;;;;;;5031746;28;20184;-67
2022/04/13 05:10:36;;;;;;;5.13;4.67;;;14.70;94.20;;;;;;5044382;28;20209;-67
2022/04/13 05:13:02;;;;;;;7.47;6.97;;;14.60;94.50;;;;;;5031002;28;20285;-74
2022/04/13 05:15:29;;;;;;;6.87;6.27;;;14.50;94.50;;;;;;5034935;28;20169;-67
2022/04/13 05:17:55;;;;;;;6.27;5.87;;;14.60;95.00;;;;;;5051986;28;20405;-67
2022/04/13 05:20:20;;;;;;;9.73;9.00;;;14.60;95.20;;;;;;5053688;28;20460;-67
2022/04/13 05:22:46;;;;;;;8.87;8.17;;;14.50;95.50;;;;;;5036792;28;20486;-68
2022/04/13 05:25:16;;;;;;;7.67;7.07;;;14.50;95.90;;;;;;5035417;28;20182;-68
2022/04/13 05:27:44;;;;;;;9.17;8.50;;;14.50;95.70;;;;;;5036467;28;20170;-68
2022/04/13 05:30:13;;;;;;;9.40;8.70;;;14.50;95.70;;;;;;5052511;28;20432;-68
2022/04/13 05:32:59;;;;;;;9.57;8.40;;;14.50;95.60;;;;;;5038594;28;20430;-67
2022/04/13 05:35:25;;;;;;;7.07;6.47;;;14.60;94.50;;;;;;5016687;28;20490;-68
2022/04/13 05:37:52;;;;;;;7.30;6.67;;;14.70;95.00;;;;;;5048719;28;20916;-68
2022/04/13 05:40:18;;;;;;;7.07;6.37;;;14.70;95.60;;;;;;5031208;28;20540;-67
2022/04/13 05:42:44;;;;;;;7.17;6.43;;;14.70;96.00;;;;;;5034698;28;20504;-68
2022/04/13 05:45:11;;;;;;;6.90;6.13;;;14.80;96.30;;;;;;5034269;28;20417;-68
2022/04/13 05:47:40;;;;;;;9.10;6.70;;;14.80;96.70;;;;;;5034501;28;20416;-68
2022/04/13 05:50:07;;;;;;;9.70;7.00;;;14.70;97.00;;;;;;5034967;28;20429;-69
2022/04/13 05:52:32;;;;;;;7.93;7.33;;;14.80;97.40;;;;;;5045815;28;20928;-68
2022/04/13 05:54:58;;;;;;;7.80;7.20;;;14.80;97.60;;;;;;5044301;28;20472;-69
2022/04/13 05:57:24;;;;;;;9.77;9.00;;;14.70;96.90;;;;;;5053337;28;20291;-68
2022/04/13 05:59:50;;;;;;;9.00;8.30;;;14.80;97.40;;;;;;5049172;28;20511;-68
2022/04/13 06:02:16;;;;;;;8.00;7.07;;;14.70;98.20;;;;;;5038722;28;20859;-67
2022/04/13 06:04:41;;;;;;;6.93;6.23;;;14.80;98.20;;;;;;5039358;28;20209;-66
2022/04/13 06:07:07;;;;;;;8.87;7.00;;;14.80;98.00;;;;;;5053730;28;20196;-67
2022/04/13 06:09:33;;;;;;;8.80;7.20;;;14.80;98.30;;;;;;5051955;28;20180;-67
2022/04/13 06:11:59;;;;;;;8.10;7.10;;;14.80;98.30;;;;;;5042426;28;20587;-66
2022/04/13 06:14:24;;;;;;;7.73;7.03;;;14.90;97.80;;;;;;5043430;28;20418;-67
2022/04/13 06:16:50;;;;;;;7.93;7.23;;;14.90;98.50;;;;;;5047144;28;20427;-67
2022/04/13 06:19:16;;;;;;;10.40;8.60;;;15.00;98.40;;;;;;5044761;28;20219;-67
2022/04/13 06:21:42;;;;;;;9.07;8.27;;;15.00;97.50;;;;;;5041922;28;20211;-67
2022/04/13 06:24:08;;;;;;;8.67;7.90;;;15.10;97.90;;;;;;5042101;28;20517;-67
2022/04/13 06:26:34;;;;;;;8.60;7.70;;;15.10;98.00;;;;;;5035335;28;20175;-67
2022/04/13 06:28:59;;;;;;;9.07;8.20;;;15.20;97.80;;;;;;5037377;28;20188;-67
2022/04/13 06:31:25;;;;;;;9.83;9.13;;;15.30;97.50;;;;;;5047778;28;20619;-67
2022/04/13 06:33:52;;;;;;;7.00;6.40;;;15.30;96.60;;;;;;5044053;28;20171;-67
2022/04/13 06:36:18;;;;;;;7.23;6.60;;;15.40;95.10;;;;;;5052467;28;20403;-67
2022/04/13 06:38:44;;;;;;;14.00;11.87;;;15.50;94.70;;;;;;5040331;28;20425;-67
2022/04/13 06:41:11;;;;;;;10.10;8.80;;;15.60;94.40;;;;;;5052615;28;20468;-70
2022/04/13 06:43:37;;;;;;;10.60;8.47;;;15.70;94.20;;;;;;5051600;28;20431;-67
2022/04/13 06:46:04;;;;;;;8.00;7.47;;;15.80;94.30;;;;;;5041302;28;20471;-67
2022/04/13 06:48:30;;;;;;;8.20;7.50;;;15.90;94.00;;;;;;5027011;28;20421;-67
2022/04/13 06:50:56;;;;;;;6.90;6.20;;;16.00;93.30;;;;;;5023733;28;20447;-67
2022/04/13 06:53:22;;;;;;;6.57;6.00;;;16.10;93.70;;;;;;5033502;28;20177;-67
2022/04/13 06:55:48;;;;;;;7.23;6.43;;;16.20;93.60;;;;;;5035296;28;20182;-67
2022/04/13 06:58:18;;;;;;;7.87;7.10;;;16.30;92.90;;;;;;5016705;28;20177;-67
2022/04/13 07:00:44;;;;;;;10.80;9.80;;;16.30;93.00;;;;;;5046625;28;20868;-67
2022/04/13 07:03:10;;;;;;;14.00;11.87;;;16.40;92.80;;;;;;5043211;28;20817;-67
2022/04/13 07:05:36;;;;;;;11.60;10.70;;;16.50;92.60;;;;;;5013944;28;20521;-67
2022/04/13 07:08:05;;;;;;;9.00;8.20;;;16.60;93.00;;;;;;5040216;28;20624;-67
2022/04/13 07:10:32;;;;;;;9.57;8.73;;;16.70;93.30;;;;;;5053811;28;20165;-67
2022/04/13 07:12:58;;;;;;;8.67;7.43;;;16.70;92.90;;;;;;5047821;28;20469;-67
2022/04/13 07:15:24;;;;;;;8.77;7.93;;;16.80;92.00;;;;;;5034095;28;20799;-67
2022/04/13 07:17:50;;;;;;;8.63;7.93;;;16.90;91.60;;;;;;5033313;28;20257;-67
2022/04/13 07:20:19;;;;;;;9.07;8.10;;;17.00;91.80;;;;;;5032083;28;20476;-67
2022/04/13 07:22:57;;;;;;;11.20;8.40;;;17.00;92.10;;;;;;5033216;28;20431;-67
2022/04/13 07:25:23;;;;;;;9.80;8.90;;;17.10;91.90;;;;;;5033013;28;20914;-67
2022/04/13 07:27:49;;;;;;;9.10;8.30;;;17.20;91.40;;;;;;5033720;28;20417;-67
2022/04/13 07:30:15;;;;;;;10.93;9.93;;;17.20;91.70;;;;;;5032909;28;20462;-67
2022/04/13 07:32:52;;;;;;;7.83;7.13;;;17.20;91.70;;;;;;5033145;28;20193;-67
2022/04/13 07:35:18;;;;;;;9.20;7.07;;;17.30;91.50;;;;;;5033052;28;20424;-67
2022/04/13 07:37:43;;;;;;;7.60;7.00;;;17.40;91.50;;;;;;5033708;28;20417;-67
2022/04/13 07:40:11;;;;;;;7.63;6.90;;;17.40;91.10;;;;;;5032333;28;20218;-68
2022/04/13 07:42:37;;;;;;;7.67;6.80;;;17.50;91.10;;;;;;5014905;28;20272;-67
2022/04/13 07:45:04;;;;;;;10.90;8.70;;;17.50;91.10;;;;;;5033116;28;20406;-67
2022/04/13 07:47:31;;;;;;;8.10;7.23;;;17.60;91.30;;;;;;5032528;28;20771;-67
2022/04/13 07:49:57;;;;;;;10.63;7.47;;;17.70;91.30;;;;;;5033228;28;20418;-67
2022/04/13 07:52:23;;;;;;;9.10;8.20;;;17.70;91.10;;;;;;5014729;28;20839;-67
2022/04/13 07:54:49;;;;;;;11.27;8.37;;;17.80;91.80;;;;;;5033058;28;20479;-67
2022/04/13 07:57:15;;;;;;;9.77;8.60;;;17.80;91.60;;;;;;5032022;28;20413;-67
2022/04/13 07:59:42;;;;;;;11.93;9.50;;;17.90;91.20;;;;;;4999125;28;20281;-67
2022/04/13 08:02:09;;;;;;;11.17;8.83;;;18.00;91.30;;;;;;5032876;28;20448;-67
2022/04/13 08:04:35;;;;;;;9.20;8.30;;;18.10;91.00;;;;;;5014860;28;20508;-67
2022/04/13 08:07:01;;;;;;;12.60;8.70;;;18.20;91.40;;;;;;5032939;28;20405;-67
2022/04/13 08:09:27;;;;;;;10.43;8.73;;;18.30;91.30;;;;;;5014623;28;20459;-67
2022/04/13 08:11:52;;;;;;;8.87;8.00;;;18.40;91.00;;;;;;5032814;28;20419;-67
2022/04/13 08:14:24;;;;;;;11.43;10.33;;;18.50;90.80;;;;;;5032150;28;20935;-67
2022/04/13 08:16:50;;;;;;;9.47;8.50;;;18.70;90.90;;;;;;5032804;28;20178;-67
2022/04/13 08:19:16;;;;;;;10.80;9.80;;;18.70;90.80;;;;;;5031889;28;20487;-68
2022/04/13 08:21:42;;;;;;;12.43;10.10;;;18.80;90.80;;;;;;5032669;28;20468;-67
2022/04/13 08:24:08;;;;;;;9.40;7.90;;;18.90;90.60;;;;;;5032646;28;20179;-67
2022/04/13 08:26:33;;;;;;;10.33;9.30;;;18.90;90.60;;;;;;5032319;28;20197;-67
2022/04/13 08:28:59;;;;;;;10.53;9.53;;;19.00;91.30;;;;;;5032657;28;20405;-67
2022/04/13 08:31:25;;;;;;;10.70;9.37;;;19.10;90.70;;;;;;5032015;28;20177;-67
2022/04/13 08:33:50;;;;;;;11.80;10.93;;;19.10;91.10;;;;;;5032573;28;20547;-67
2022/04/13 08:36:16;;;;;;;12.20;9.53;;;19.20;90.90;;;;;;5031943;28;20187;-67
2022/04/13 08:38:42;;;;;;;12.03;9.83;;;19.20;90.60;;;;;;5014967;28;20185;-67
2022/04/13 08:41:35;;;;;;;11.87;9.60;;;19.30;90.70;;;;;;5032120;28;20460;-67
2022/04/13 08:44:11;;;;;;;12.20;10.20;;;19.30;90.30;;;;;;5031951;28;20319;-67
2022/04/13 08:46:39;;;;;;;10.50;9.03;;;19.40;90.30;;;;;;5032472;28;20401;-67
2022/04/13 08:49:09;;;;;;;12.17;9.07;;;19.50;90.40;;;;;;5032567;28;20417;-67
2022/04/13 08:51:35;;;;;;;9.53;8.63;;;19.60;90.00;;;;;;5031742;28;20418;-67
2022/04/13 08:54:21;;;;;;;12.43;10.93;;;19.60;90.20;;;;;;5035404;28;20427;-67
2022/04/13 08:56:49;;;;;;;10.20;8.50;;;19.70;90.20;;;;;;5036385;28;20540;-67
2022/04/13 08:59:20;;;;;;;9.77;8.77;;;19.80;89.80;;;;;;5035740;28;20809;-68
2022/04/13 09:02:09;;;;;;;12.73;11.30;;;19.90;90.50;;;;;;5035982;28;20444;-67
2022/04/13 09:04:43;;;;;;;15.50;10.77;;;20.00;90.60;;;;;;5034793;28;20397;-67
2022/04/13 09:07:11;;;;;;;11.87;10.80;;;20.00;90.30;;;;;;5036364;28;20797;-67
2022/04/13 09:09:43;;;;;;;11.37;9.57;;;20.10;90.50;;;;;;5035816;28;20417;-67
2022/04/13 09:12:12;;;;;;;19.80;11.30;;;20.20;90.60;;;;;;5036203;28;20402;-67
2022/04/13 09:14:40;;;;;;;12.30;10.60;;;20.30;90.80;;;;;;5035740;28;20832;-67
2022/04/13 09:17:07;;;;;;;9.87;8.87;;;20.40;90.50;;;;;;5035971;28;20455;-67
2022/04/13 09:19:33;;;;;;;11.60;9.70;;;20.50;90.40;;;;;;5035313;28;20452;-67
2022/04/13 09:22:00;;;;;;;12.10;9.00;;;20.60;90.30;;;;;;5035529;28;20460;-67
2022/04/13 09:24:31;;;;;;;11.23;8.67;;;20.80;91.00;;;;;;5034909;28;20405;-68
2022/04/13 09:26:58;;;;;;;13.17;8.07;;;21.00;90.60;;;;;;5035827;28;20408;-67
2022/04/13 09:29:24;;;;;;;10.03;8.87;;;21.10;90.30;;;;;;5035156;28;20421;-67
2022/04/13 09:31:50;;;;;;;13.77;8.90;;;21.20;90.50;;;;;;5018194;28;20459;-67
2022/04/13 09:34:16;;;;;;;9.70;8.57;;;21.40;90.20;;;;;;5035066;28;20413;-68
2022/04/13 09:36:42;;;;;;;14.10;10.33;;;21.60;89.00;;;;;;5035637;28;20170;-67
2022/04/13 09:39:08;;;;;;;11.27;9.90;;;21.80;87.90;;;;;;5035626;28;20200;-67
2022/04/13 09:41:36;;;;;;;12.50;10.20;;;22.00;87.90;;;;;;5034910;28;21072;-67
2022/04/13 09:44:11;;;;;;;12.53;10.40;;;22.20;90.00;;;;;;5035543;28;20170;-68
2022/04/13 09:46:37;;;;;;;9.83;7.97;;;22.40;87.70;;;;;;5034790;28;20450;-67
2022/04/13 09:49:21;;;;;;;13.80;10.20;;;22.70;84.90;;;;;;5035401;28;20504;-68
2022/04/13 09:51:50;;;;;;;11.20;7.73;;;23.00;85.40;;;;;;5035482;28;20430;-67
2022/04/13 09:54:22;;;;;;;10.33;7.90;;;23.20;85.60;;;;;;5034747;28;20401;-71
2022/04/13 09:56:48;;;;;;;11.70;7.87;;;23.40;83.10;;;;;;5035409;28;20417;-67
2022/04/13 09:59:32;;;;;;;9.00;6.80;;;23.60;82.80;;;;;;5035215;28;20464;-67
2022/04/13 10:01:59;;;;;;;12.27;8.80;;;23.80;81.80;;;;;;5035129;28;20564;-67
2022/04/13 10:04:29;;;;;;;8.40;7.60;;;23.80;78.30;;;;;;5033642;28;20819;-68
2022/04/13 10:06:55;;;;;;;9.60;8.60;;;23.90;80.00;;;;;;5035067;28;20417;-67
2022/04/13 10:09:23;;;;;;;9.53;7.30;;;24.00;80.10;;;;;;5034514;28;20450;-67
2022/04/13 10:12:01;;;;;;;8.23;7.53;;;24.10;76.50;;;;;;5035019;28;20429;-67
2022/04/13 10:14:27;;;;;;;8.57;6.87;;;24.20;76.50;;;;;;5034395;28;20425;-67
2022/04/13 10:16:55;;;;;;;12.10;8.70;;;24.30;80.50;;;;;;5034936;28;20413;-68
2022/04/13 10:19:21;;;;;;;8.33;6.63;;;24.50;76.90;;;;;;5033990;28;20547;-68
2022/04/13 10:21:49;;;;;;;7.70;5.73;;;24.60;76.50;;;;;;5034431;28;20634;-68
2022/04/13 10:24:29;;;;;;;7.93;6.20;;;24.70;77.20;;;;;;5034729;28;20201;-67
2022/04/13 10:27:03;;;;;;;7.13;5.83;;;24.90;78.40;;;;;;5034353;28;20942;-68
2022/04/13 10:29:33;;;;;;;8.90;8.00;;;25.00;75.10;;;;;;5033683;28;20439;-68
2022/04/13 10:32:05;;;;;;;8.97;6.67;;;25.10;74.10;;;;;;5034490;28;20917;-67
2022/04/13 10:34:33;;;;;;;9.63;6.40;;;25.20;77.60;;;;;;5032791;28;20869;-67
2022/04/13 10:36:59;;;;;;;7.60;6.87;;;25.40;75.90;;;;;;5034654;28;20499;-67
2022/04/13 10:39:25;;;;;;;14.07;8.93;;;25.50;74.10;;;;;;5034009;28;20795;-67
2022/04/13 10:41:50;;;;;;;11.80;8.00;;;25.60;72.60;;;;;;5034149;28;20503;-67
2022/04/13 10:44:28;;;;;;;7.93;6.87;;;25.40;72.90;;;;;;5034455;28;20266;-67
2022/04/13 10:46:58;;;;;;;9.00;6.90;;;25.50;71.70;;;;;;5034570;28;20158;-68
2022/04/13 10:49:30;;;;;;;8.50;6.50;;;25.50;72.60;;;;;;5033822;28;20500;-68
2022/04/13 10:52:02;;;;;;;11.07;6.43;;;25.40;70.10;;;;;;5034379;28;20402;-67
2022/04/13 10:54:33;;;;;;;6.73;6.07;;;25.20;72.20;;;;;;5033766;28;20401;-68
2022/04/13 10:57:00;;;;;;;10.03;6.27;;;25.10;70.40;;;;;;5034426;28;20400;-67
2022/04/13 10:59:32;;;;;;;6.03;5.50;;;24.90;71.90;;;;;;5033591;28;20412;-67
2022/04/13 11:02:10;;;;;;;7.93;5.50;;;24.70;72.10;;;;;;5034092;28;20800;-67
2022/04/13 11:04:37;;;;;;;7.60;6.17;;;24.60;72.10;;;;;;5033564;28;20389;-67
2022/04/13 11:07:04;;;;;;;6.50;5.90;;;24.30;70.90;;;;;;5034114;28;20413;-67
2022/04/13 11:09:36;;;;;;;7.87;5.60;;;24.20;72.10;;;;;;5033416;28;20401;-68
2022/04/13 11:12:03;;;;;;;8.37;7.57;;;24.20;72.00;;;;;;5033858;28;20393;-67
2022/04/13 11:14:29;;;;;;;7.60;6.60;;;24.10;73.90;;;;;;5033264;28;20405;-68
2022/04/13 11:17:07;;;;;;;7.70;5.70;;;24.30;74.30;;;;;;5033601;28;20413;-67
2022/04/13 11:19:33;;;;;;;6.57;5.97;;;24.40;74.30;;;;;;5032636;28;20272;-68
2022/04/13 11:21:59;;;;;;;6.70;5.77;;;24.60;74.20;;;;;;5033300;28;20817;-68
2022/04/13 11:24:45;;;;;;;11.03;6.10;;;24.80;73.20;;;;;;5033024;28;20401;-68
2022/04/13 11:27:11;;;;;;;9.43;7.53;;;25.00;75.20;;;;;;5033781;28;20492;-67
2022/04/13 11:29:41;;;;;;;9.27;7.60;;;25.30;71.50;;;;;;5033037;28;20417;-68
2022/04/13 11:32:10;;;;;;;8.07;6.50;;;25.50;68.90;;;;;;5033606;28;20405;-67
2022/04/13 11:34:58;;;;;;;9.77;7.43;;;25.60;69.00;;;;;;5015294;28;20775;-67
2022/04/13 11:37:34;;;;;;;8.23;7.43;;;25.70;67.70;;;;;;5032927;28;20393;-68
2022/04/13 11:40:03;;;;;;;7.33;6.70;;;25.80;67.30;;;;;;5033375;28;20385;-67
2022/04/13 11:42:48;;;;;;;7.03;6.43;;;25.80;66.50;;;;;;5032763;28;20497;-68
2022/04/13 11:45:18;;;;;;;9.00;5.20;;;25.90;67.30;;;;;;5033516;28;20401;-68
2022/04/13 11:47:53;;;;;;;6.60;6.00;;;26.00;64.10;;;;;;5032772;28;20721;-68
2022/04/13 11:50:18;;;;;;;7.00;6.30;;;26.00;64.50;;;;;;5032819;28;20424;-67
2022/04/13 11:52:54;;;;;;;6.47;5.83;;;26.20;65.30;;;;;;5032631;28;20420;-67
2022/04/13 11:55:22;;;;;;;9.30;6.87;;;26.30;63.90;;;;;;5033024;28;20513;-68
2022/04/13 11:57:57;;;;;;;7.10;5.20;;;26.30;65.00;;;;;;5033228;28;20438;-67
2022/04/13 12:00:50;;;;;;;8.50;6.87;;;26.50;64.40;;;;;;5032974;28;20924;-75
2022/04/13 12:03:37;;;;;;;7.50;6.90;;;26.60;61.20;;;;;;5033351;28;20734;-68
2022/04/13 12:06:07;;;;;;;6.23;5.30;;;26.70;60.00;;;;;;5032173;28;20771;-68
2022/04/13 12:08:35;;;;;;;9.50;7.97;;;26.70;65.30;;;;;;5032306;28;20421;-68
2022/04/13 12:11:12;;;;;;;6.90;4.77;;;26.80;60.40;;;;;;5032921;28;20417;-67
2022/04/13 12:13:49;;;;;;;4.43;4.07;;;26.60;60.60;;;;;;5032297;28;20409;-68
2022/04/13 12:16:18;;;;;;;5.30;4.80;;;26.70;60.50;;;;;;5032991;28;20451;-67
2022/04/13 12:18:44;;;;;;;8.13;7.47;;;26.70;59.90;;;;;;5031996;28;20527;-67
2022/04/13 12:21:16;;;;;;;4.90;4.20;;;26.60;57.70;;;;;;5032449;28;20445;-68
2022/04/13 12:23:43;;;;;;;6.40;6.00;;;26.30;59.00;;;;;;5031987;28;20448;-68
2022/04/13 12:26:09;;;;;;;5.83;5.20;;;26.20;59.50;;;;;;5015230;28;20757;-67
2022/04/13 12:28:36;;;;;;;6.07;5.57;;;26.00;59.40;;;;;;5031681;28;20401;-68
2022/04/13 12:31:03;;;;;;;9.67;4.27;;;25.90;59.60;;;;;;5015274;28;20440;-67
2022/04/13 12:33:30;;;;;;;8.37;7.67;;;25.70;60.60;;;;;;5031788;28;20754;-68
2022/04/13 12:36:00;;;;;;;6.47;5.87;;;25.50;60.00;;;;;;5032467;28;20405;-68
2022/04/13 12:38:39;;;;;;;8.80;7.30;;;25.20;60.70;;;;;;5032379;28;20463;-69
2022/04/13 12:41:04;;;;;;;6.90;4.93;;;25.10;63.40;;;;;;5032490;28;20445;-67
2022/04/13 12:43:31;;;;;;;7.70;7.10;;;24.90;63.90;;;;;;5031598;28;20791;-68
2022/04/13 12:45:57;;;;;;;6.73;6.13;;;24.70;65.90;;;;;;5032892;28;20633;-67
2022/04/13 12:48:27;;;;;;;8.37;5.43;;;24.50;64.70;;;;;;5032122;28;20409;-67
2022/04/13 12:50:55;;;;;;;6.70;6.20;;;24.40;66.40;;;;;;5031741;28;20429;-67